Terminal Aerodrome Forecast
Issued by NWS

Home | Current Version | Previous Version | Text Only | Print | Product List | Glossary On
Versions: 1 2 3 4 5 6 7 8 9 10 11 12 13 14 15 16 17 18 19 20 21 22 23 24 25 26
000
FTUS43 KGRR 231511 AAA
TAFAZO
TAF AMD
KAZO 231511Z 2315/2412 32010KT P6SM SKC
     FM231600 31009KT 4SM BR OVC008
     FM231800 34009KT P6SM BKN015
     FM232100 01009KT P6SM FEW025 BKN150
     FM240400 06011KT 4SM -RA BR OVC008
     FM240600 06015KT 2SM -RA BR VCTS OVC004CB=

USA.gov is the U.S. government's official web portal to all federal, state and local government web resources and services.